sensor_id;sensor_type;location;lat;lon;timestamp;P1;durP1;ratioP1;P2;durP2;ratioP2
4011;SDS011;2020;48.682;9.024;2022-10-28T00:01:03;3.97;;;3.40;;
4011;SDS011;2020;48.682;9.024;2022-10-28T00:03:31;4.70;;;4.30;;
4011;SDS011;2020;48.682;9.024;2022-10-28T00:06:03;4.57;;;4.17;;
4011;SDS011;2020;48.682;9.024;2022-10-28T00:08:30;3.50;;;3.30;;
4011;SDS011;2020;48.682;9.024;2022-10-28T00:11:02;4.20;;;3.80;;
4011;SDS011;2020;48.682;9.024;2022-10-28T00:13:33;13.73;;;4.50;;
4011;SDS011;2020;48.682;9.024;2022-10-28T00:16:09;5.77;;;3.47;;
4011;SDS011;2020;48.682;9.024;2022-10-28T00:18:45;6.83;;;3.70;;
4011;SDS011;2020;48.682;9.024;2022-10-28T00:21:13;11.60;;;4.37;;
4011;SDS011;2020;48.682;9.024;2022-10-28T00:23:39;9.43;;;4.47;;
4011;SDS011;2020;48.682;9.024;2022-10-28T00:26:07;4.70;;;4.30;;
4011;SDS011;2020;48.682;9.024;2022-10-28T00:28:42;3.90;;;3.63;;
4011;SDS011;2020;48.682;9.024;2022-10-28T00:31:09;4.83;;;4.27;;
4011;SDS011;2020;48.682;9.024;2022-10-28T00:33:36;4.20;;;3.50;;
4011;SDS011;2020;48.682;9.024;2022-10-28T00:36:12;4.00;;;3.50;;
4011;SDS011;2020;48.682;9.024;2022-10-28T00:38:42;5.20;;;4.17;;
4011;SDS011;2020;48.682;9.024;2022-10-28T00:41:09;4.60;;;4.30;;
4011;SDS011;2020;48.682;9.024;2022-10-28T00:43:40;6.97;;;3.83;;
4011;SDS011;2020;48.682;9.024;2022-10-28T00:46:13;3.93;;;3.50;;
4011;SDS011;2020;48.682;9.024;2022-10-28T00:48:42;10.80;;;4.47;;
4011;SDS011;2020;48.682;9.024;2022-10-28T00:51:11;6.30;;;4.30;;
4011;SDS011;2020;48.682;9.024;2022-10-28T00:53:38;7.67;;;4.00;;
4011;SDS011;2020;48.682;9.024;2022-10-28T00:56:07;10.37;;;4.30;;
4011;SDS011;2020;48.682;9.024;2022-10-28T00:58:34;6.70;;;4.93;;
4011;SDS011;2020;48.682;9.024;2022-10-28T01:00:59;7.20;;;5.13;;
4011;SDS011;2020;48.682;9.024;2022-10-28T01:03:25;6.10;;;4.07;;
4011;SDS011;2020;48.682;9.024;2022-10-28T01:05:50;5.20;;;3.60;;
4011;SDS011;2020;48.682;9.024;2022-10-28T01:08:17;4.17;;;3.77;;
4011;SDS011;2020;48.682;9.024;2022-10-28T01:13:33;6.27;;;4.40;;
4011;SDS011;2020;48.682;9.024;2022-10-28T01:19:06;7.57;;;5.00;;
4011;SDS011;2020;48.682;9.024;2022-10-28T01:30:13;7.20;;;4.07;;
4011;SDS011;2020;48.682;9.024;2022-10-28T01:32:48;4.70;;;4.20;;
4011;SDS011;2020;48.682;9.024;2022-10-28T01:35:21;7.37;;;3.60;;
4011;SDS011;2020;48.682;9.024;2022-10-28T01:38:00;5.30;;;4.80;;
4011;SDS011;2020;48.682;9.024;2022-10-28T01:43:12;4.60;;;4.30;;
4011;SDS011;2020;48.682;9.024;2022-10-28T01:48:24;4.43;;;4.13;;
4011;SDS011;2020;48.682;9.024;2022-10-28T01:51:01;6.47;;;4.47;;
4011;SDS011;2020;48.682;9.024;2022-10-28T01:53:32;4.50;;;4.10;;
4011;SDS011;2020;48.682;9.024;2022-10-28T01:56:03;4.60;;;4.20;;
4011;SDS011;2020;48.682;9.024;2022-10-28T01:58:32;7.20;;;3.70;;
4011;SDS011;2020;48.682;9.024;2022-10-28T02:01:00;6.30;;;4.30;;
4011;SDS011;2020;48.682;9.024;2022-10-28T02:03:30;4.93;;;4.43;;
4011;SDS011;2020;48.682;9.024;2022-10-28T02:05:55;5.93;;;3.83;;
4011;SDS011;2020;48.682;9.024;2022-10-28T02:08:32;4.67;;;4.40;;
4011;SDS011;2020;48.682;9.024;2022-10-28T02:11:15;5.17;;;4.23;;
4011;SDS011;2020;48.682;9.024;2022-10-28T02:28:31;3.67;;;3.37;;
4011;SDS011;2020;48.682;9.024;2022-10-28T02:31:23;4.17;;;3.73;;
4011;SDS011;2020;48.682;9.024;2022-10-28T02:33:56;3.60;;;3.30;;
4011;SDS011;2020;48.682;9.024;2022-10-28T02:36:24;6.80;;;4.07;;
4011;SDS011;2020;48.682;9.024;2022-10-28T02:38:55;4.47;;;4.07;;
4011;SDS011;2020;48.682;9.024;2022-10-28T02:41:25;10.10;;;4.47;;
4011;SDS011;2020;48.682;9.024;2022-10-28T02:44:00;4.30;;;3.90;;
4011;SDS011;2020;48.682;9.024;2022-10-28T02:46:30;7.93;;;4.17;;
4011;SDS011;2020;48.682;9.024;2022-10-28T02:48:59;6.90;;;4.30;;
4011;SDS011;2020;48.682;9.024;2022-10-28T02:51:34;5.50;;;4.23;;
4011;SDS011;2020;48.682;9.024;2022-10-28T02:54:14;4.40;;;3.40;;
4011;SDS011;2020;48.682;9.024;2022-10-28T02:56:50;3.53;;;3.20;;
4011;SDS011;2020;48.682;9.024;2022-10-28T02:59:22;3.40;;;3.13;;
4011;SDS011;2020;48.682;9.024;2022-10-28T03:01:48;4.33;;;3.93;;
4011;SDS011;2020;48.682;9.024;2022-10-28T03:04:14;7.23;;;3.90;;
4011;SDS011;2020;48.682;9.024;2022-10-28T03:06:39;4.47;;;3.93;;
4011;SDS011;2020;48.682;9.024;2022-10-28T03:09:04;4.37;;;3.70;;
4011;SDS011;2020;48.682;9.024;2022-10-28T03:11:29;4.10;;;3.77;;
4011;SDS011;2020;48.682;9.024;2022-10-28T03:13:55;5.47;;;4.10;;
4011;SDS011;2020;48.682;9.024;2022-10-28T03:16:20;3.83;;;3.53;;
4011;SDS011;2020;48.682;9.024;2022-10-28T03:18:45;3.97;;;3.50;;
4011;SDS011;2020;48.682;9.024;2022-10-28T03:21:11;4.90;;;3.90;;
4011;SDS011;2020;48.682;9.024;2022-10-28T03:23:36;4.70;;;3.70;;
4011;SDS011;2020;48.682;9.024;2022-10-28T03:26:01;3.97;;;3.67;;
4011;SDS011;2020;48.682;9.024;2022-10-28T03:28:26;6.80;;;4.20;;
4011;SDS011;2020;48.682;9.024;2022-10-28T03:30:52;7.73;;;3.73;;
4011;SDS011;2020;48.682;9.024;2022-10-28T03:33:17;3.30;;;3.10;;
4011;SDS011;2020;48.682;9.024;2022-10-28T03:35:43;5.43;;;4.17;;
4011;SDS011;2020;48.682;9.024;2022-10-28T03:38:08;6.93;;;3.63;;
4011;SDS011;2020;48.682;9.024;2022-10-28T03:40:33;5.97;;;4.10;;
4011;SDS011;2020;48.682;9.024;2022-10-28T03:42:59;6.70;;;4.57;;
4011;SDS011;2020;48.682;9.024;2022-10-28T03:45:24;3.33;;;3.13;;
4011;SDS011;2020;48.682;9.024;2022-10-28T03:47:49;3.97;;;3.60;;
4011;SDS011;2020;48.682;9.024;2022-10-28T03:50:15;4.27;;;3.87;;
4011;SDS011;2020;48.682;9.024;2022-10-28T03:52:41;6.37;;;3.80;;
4011;SDS011;2020;48.682;9.024;2022-10-28T03:55:07;4.33;;;3.93;;
4011;SDS011;2020;48.682;9.024;2022-10-28T03:57:32;8.80;;;5.00;;
4011;SDS011;2020;48.682;9.024;2022-10-28T03:59:58;7.70;;;3.80;;
4011;SDS011;2020;48.682;9.024;2022-10-28T04:02:23;5.47;;;3.83;;
4011;SDS011;2020;48.682;9.024;2022-10-28T04:04:48;4.37;;;3.97;;
4011;SDS011;2020;48.682;9.024;2022-10-28T04:07:14;5.07;;;3.40;;
4011;SDS011;2020;48.682;9.024;2022-10-28T04:09:39;4.53;;;3.50;;
4011;SDS011;2020;48.682;9.024;2022-10-28T04:12:04;4.07;;;3.87;;
4011;SDS011;2020;48.682;9.024;2022-10-28T04:14:30;3.60;;;3.40;;
4011;SDS011;2020;48.682;9.024;2022-10-28T04:16:55;3.40;;;3.20;;
4011;SDS011;2020;48.682;9.024;2022-10-28T04:19:21;3.63;;;3.07;;
4011;SDS011;2020;48.682;9.024;2022-10-28T04:21:46;4.77;;;3.30;;
4011;SDS011;2020;48.682;9.024;2022-10-28T04:24:11;3.13;;;2.93;;
4011;SDS011;2020;48.682;9.024;2022-10-28T04:26:37;3.50;;;3.17;;
4011;SDS011;2020;48.682;9.024;2022-10-28T04:29:02;4.80;;;3.30;;
4011;SDS011;2020;48.682;9.024;2022-10-28T04:31:27;3.63;;;3.23;;
4011;SDS011;2020;48.682;9.024;2022-10-28T04:33:52;10.17;;;3.17;;
4011;SDS011;2020;48.682;9.024;2022-10-28T04:36:18;4.30;;;2.90;;
4011;SDS011;2020;48.682;9.024;2022-10-28T04:38:43;3.33;;;2.60;;
4011;SDS011;2020;48.682;9.024;2022-10-28T04:41:10;5.70;;;2.53;;
4011;SDS011;2020;48.682;9.024;2022-10-28T04:43:37;4.23;;;3.90;;
4011;SDS011;2020;48.682;9.024;2022-10-28T04:46:02;3.67;;;3.47;;
4011;SDS011;2020;48.682;9.024;2022-10-28T04:48:30;4.17;;;2.30;;
4011;SDS011;2020;48.682;9.024;2022-10-28T04:50:58;7.07;;;2.83;;
4011;SDS011;2020;48.682;9.024;2022-10-28T04:53:23;6.53;;;2.83;;
4011;SDS011;2020;48.682;9.024;2022-10-28T04:55:49;5.07;;;2.57;;
4011;SDS011;2020;48.682;9.024;2022-10-28T04:58:14;2.47;;;2.27;;
4011;SDS011;2020;48.682;9.024;2022-10-28T05:00:39;5.33;;;3.10;;
4011;SDS011;2020;48.682;9.024;2022-10-28T05:03:04;3.57;;;3.13;;
4011;SDS011;2020;48.682;9.024;2022-10-28T05:05:30;3.00;;;2.80;;
4011;SDS011;2020;48.682;9.024;2022-10-28T05:07:55;6.47;;;2.60;;
4011;SDS011;2020;48.682;9.024;2022-10-28T05:10:20;5.80;;;3.17;;
4011;SDS011;2020;48.682;9.024;2022-10-28T05:12:46;5.00;;;3.23;;
4011;SDS011;2020;48.682;9.024;2022-10-28T05:15:12;3.23;;;2.70;;
4011;SDS011;2020;48.682;9.024;2022-10-28T05:17:47;6.80;;;3.30;;
4011;SDS011;2020;48.682;9.024;2022-10-28T05:20:14;6.83;;;3.20;;
4011;SDS011;2020;48.682;9.024;2022-10-28T05:22:50;2.70;;;2.47;;
4011;SDS011;2020;48.682;9.024;2022-10-28T05:25:17;3.17;;;2.60;;
4011;SDS011;2020;48.682;9.024;2022-10-28T05:27:43;4.53;;;2.90;;
4011;SDS011;2020;48.682;9.024;2022-10-28T05:30:09;9.83;;;3.20;;
4011;SDS011;2020;48.682;9.024;2022-10-28T05:32:35;6.27;;;2.30;;
4011;SDS011;2020;48.682;9.024;2022-10-28T05:35:01;2.63;;;2.43;;
4011;SDS011;2020;48.682;9.024;2022-10-28T05:37:27;4.50;;;2.90;;
4011;SDS011;2020;48.682;9.024;2022-10-28T05:39:52;3.17;;;2.73;;
4011;SDS011;2020;48.682;9.024;2022-10-28T05:42:18;6.20;;;2.90;;
4011;SDS011;2020;48.682;9.024;2022-10-28T05:44:43;5.23;;;2.70;;
4011;SDS011;2020;48.682;9.024;2022-10-28T05:47:08;2.87;;;2.50;;
4011;SDS011;2020;48.682;9.024;2022-10-28T05:49:33;9.23;;;3.50;;
4011;SDS011;2020;48.682;9.024;2022-10-28T05:51:59;5.10;;;3.00;;
4011;SDS011;2020;48.682;9.024;2022-10-28T05:54:24;5.67;;;2.80;;
4011;SDS011;2020;48.682;9.024;2022-10-28T05:56:50;4.57;;;2.47;;
4011;SDS011;2020;48.682;9.024;2022-10-28T05:59:15;5.97;;;2.80;;
4011;SDS011;2020;48.682;9.024;2022-10-28T06:01:40;5.63;;;3.30;;
4011;SDS011;2020;48.682;9.024;2022-10-28T06:04:06;4.00;;;3.03;;
4011;SDS011;2020;48.682;9.024;2022-10-28T06:06:31;4.90;;;3.03;;
4011;SDS011;2020;48.682;9.024;2022-10-28T06:08:56;3.30;;;3.07;;
4011;SDS011;2020;48.682;9.024;2022-10-28T06:11:22;7.00;;;3.50;;
4011;SDS011;2020;48.682;9.024;2022-10-28T06:13:47;5.73;;;2.43;;
4011;SDS011;2020;48.682;9.024;2022-10-28T06:16:12;5.13;;;3.07;;
4011;SDS011;2020;48.682;9.024;2022-10-28T06:18:38;4.37;;;2.63;;
4011;SDS011;2020;48.682;9.024;2022-10-28T06:21:03;8.23;;;2.90;;
4011;SDS011;2020;48.682;9.024;2022-10-28T06:23:29;4.70;;;2.80;;
4011;SDS011;2020;48.682;9.024;2022-10-28T06:25:55;3.53;;;2.80;;
4011;SDS011;2020;48.682;9.024;2022-10-28T06:28:22;2.33;;;2.13;;
4011;SDS011;2020;48.682;9.024;2022-10-28T06:30:47;2.40;;;2.20;;
4011;SDS011;2020;48.682;9.024;2022-10-28T06:33:12;4.67;;;2.27;;
4011;SDS011;2020;48.682;9.024;2022-10-28T06:35:37;4.23;;;2.50;;
4011;SDS011;2020;48.682;9.024;2022-10-28T06:38:03;2.37;;;2.17;;
4011;SDS011;2020;48.682;9.024;2022-10-28T06:40:28;2.30;;;2.20;;
4011;SDS011;2020;48.682;9.024;2022-10-28T06:43:00;3.47;;;2.23;;
4011;SDS011;2020;48.682;9.024;2022-10-28T06:45:29;4.77;;;2.77;;
4011;SDS011;2020;48.682;9.024;2022-10-28T06:47:59;7.03;;;2.50;;
4011;SDS011;2020;48.682;9.024;2022-10-28T06:50:27;6.47;;;2.43;;
4011;SDS011;2020;48.682;9.024;2022-10-28T06:52:56;2.90;;;2.70;;
4011;SDS011;2020;48.682;9.024;2022-10-28T06:55:23;5.10;;;3.77;;
4011;SDS011;2020;48.682;9.024;2022-10-28T06:57:49;5.27;;;2.50;;
4011;SDS011;2020;48.682;9.024;2022-10-28T07:00:14;5.73;;;2.70;;
4011;SDS011;2020;48.682;9.024;2022-10-28T07:02:40;2.73;;;2.50;;
4011;SDS011;2020;48.682;9.024;2022-10-28T07:05:05;4.70;;;3.03;;
4011;SDS011;2020;48.682;9.024;2022-10-28T07:07:31;5.57;;;3.07;;
4011;SDS011;2020;48.682;9.024;2022-10-28T07:09:56;2.13;;;1.90;;
4011;SDS011;2020;48.682;9.024;2022-10-28T07:12:21;9.93;;;2.77;;
4011;SDS011;2020;48.682;9.024;2022-10-28T07:14:47;3.27;;;2.97;;
4011;SDS011;2020;48.682;9.024;2022-10-28T07:17:12;3.63;;;3.10;;
4011;SDS011;2020;48.682;9.024;2022-10-28T07:19:37;11.30;;;2.70;;
4011;SDS011;2020;48.682;9.024;2022-10-28T07:22:02;2.63;;;2.40;;
4011;SDS011;2020;48.682;9.024;2022-10-28T07:24:28;3.10;;;2.10;;
4011;SDS011;2020;48.682;9.024;2022-10-28T07:26:53;6.40;;;3.40;;
4011;SDS011;2020;48.682;9.024;2022-10-28T07:29:18;4.40;;;2.53;;
4011;SDS011;2020;48.682;9.024;2022-10-28T07:31:43;5.33;;;2.90;;
4011;SDS011;2020;48.682;9.024;2022-10-28T07:34:09;6.97;;;3.10;;
4011;SDS011;2020;48.682;9.024;2022-10-28T07:36:34;5.77;;;3.23;;
4011;SDS011;2020;48.682;9.024;2022-10-28T07:38:59;3.43;;;3.13;;
4011;SDS011;2020;48.682;9.024;2022-10-28T07:41:25;5.70;;;2.00;;
4011;SDS011;2020;48.682;9.024;2022-10-28T07:43:50;2.53;;;2.40;;
4011;SDS011;2020;48.682;9.024;2022-10-28T07:46:16;2.60;;;1.80;;
4011;SDS011;2020;48.682;9.024;2022-10-28T07:48:42;5.40;;;2.43;;
4011;SDS011;2020;48.682;9.024;2022-10-28T07:51:08;4.10;;;2.13;;
4011;SDS011;2020;48.682;9.024;2022-10-28T07:53:36;6.40;;;1.63;;
4011;SDS011;2020;48.682;9.024;2022-10-28T07:56:02;5.87;;;2.00;;
4011;SDS011;2020;48.682;9.024;2022-10-28T07:58:30;5.43;;;2.30;;
4011;SDS011;2020;48.682;9.024;2022-10-28T08:00:55;3.03;;;2.40;;
4011;SDS011;2020;48.682;9.024;2022-10-28T08:03:21;6.73;;;2.47;;
4011;SDS011;2020;48.682;9.024;2022-10-28T08:05:46;3.90;;;2.27;;
4011;SDS011;2020;48.682;9.024;2022-10-28T08:08:11;3.40;;;2.43;;
4011;SDS011;2020;48.682;9.024;2022-10-28T08:10:37;2.70;;;2.30;;
4011;SDS011;2020;48.682;9.024;2022-10-28T08:13:02;3.33;;;2.20;;
4011;SDS011;2020;48.682;9.024;2022-10-28T08:15:28;4.83;;;2.57;;
4011;SDS011;2020;48.682;9.024;2022-10-28T08:17:53;5.43;;;2.87;;
4011;SDS011;2020;48.682;9.024;2022-10-28T08:20:19;2.40;;;2.30;;
4011;SDS011;2020;48.682;9.024;2022-10-28T08:22:45;3.27;;;2.67;;
4011;SDS011;2020;48.682;9.024;2022-10-28T08:25:10;5.23;;;4.00;;
4011;SDS011;2020;48.682;9.024;2022-10-28T08:27:36;2.57;;;2.40;;
4011;SDS011;2020;48.682;9.024;2022-10-28T08:30:01;5.57;;;3.20;;
4011;SDS011;2020;48.682;9.024;2022-10-28T08:32:27;3.07;;;2.70;;
4011;SDS011;2020;48.682;9.024;2022-10-28T08:34:52;11.73;;;3.00;;
4011;SDS011;2020;48.682;9.024;2022-10-28T08:37:17;2.97;;;2.77;;
4011;SDS011;2020;48.682;9.024;2022-10-28T08:39:43;4.97;;;3.20;;
4011;SDS011;2020;48.682;9.024;2022-10-28T08:42:18;2.97;;;2.70;;
4011;SDS011;2020;48.682;9.024;2022-10-28T08:45:16;3.93;;;2.50;;
4011;SDS011;2020;48.682;9.024;2022-10-28T08:47:52;3.20;;;2.77;;
4011;SDS011;2020;48.682;9.024;2022-10-28T08:50:36;7.83;;;3.20;;
4011;SDS011;2020;48.682;9.024;2022-10-28T08:53:14;4.00;;;3.67;;
4011;SDS011;2020;48.682;9.024;2022-10-28T08:55:44;4.67;;;2.70;;
4011;SDS011;2020;48.682;9.024;2022-10-28T08:58:17;3.17;;;2.40;;
4011;SDS011;2020;48.682;9.024;2022-10-28T09:00:50;6.10;;;2.50;;
4011;SDS011;2020;48.682;9.024;2022-10-28T09:03:21;4.10;;;1.80;;
4011;SDS011;2020;48.682;9.024;2022-10-28T09:05:52;5.10;;;2.40;;
4011;SDS011;2020;48.682;9.024;2022-10-28T09:08:26;7.40;;;2.50;;
4011;SDS011;2020;48.682;9.024;2022-10-28T09:21:49;3.10;;;2.80;;
4011;SDS011;2020;48.682;9.024;2022-10-28T09:32:31;4.00;;;3.60;;
4011;SDS011;2020;48.682;9.024;2022-10-28T09:35:09;6.73;;;2.90;;
4011;SDS011;2020;48.682;9.024;2022-10-28T09:37:39;2.60;;;2.03;;
4011;SDS011;2020;48.682;9.024;2022-10-28T09:40:14;9.27;;;2.80;;
4011;SDS011;2020;48.682;9.024;2022-10-28T09:42:41;5.60;;;3.03;;
4011;SDS011;2020;48.682;9.024;2022-10-28T09:45:17;4.63;;;2.70;;
4011;SDS011;2020;48.682;9.024;2022-10-28T09:47:54;2.43;;;2.20;;
4011;SDS011;2020;48.682;9.024;2022-10-28T09:50:24;2.87;;;2.70;;
4011;SDS011;2020;48.682;9.024;2022-10-28T09:55:33;3.80;;;2.43;;
4011;SDS011;2020;48.682;9.024;2022-10-28T09:57:59;2.43;;;2.20;;
4011;SDS011;2020;48.682;9.024;2022-10-28T10:00:26;5.97;;;2.50;;
4011;SDS011;2020;48.682;9.024;2022-10-28T10:02:54;3.30;;;2.40;;
4011;SDS011;2020;48.682;9.024;2022-10-28T10:05:24;6.40;;;2.20;;
4011;SDS011;2020;48.682;9.024;2022-10-28T10:10:25;4.77;;;3.70;;
4011;SDS011;2020;48.682;9.024;2022-10-28T10:12:56;2.97;;;1.87;;
4011;SDS011;2020;48.682;9.024;2022-10-28T10:15:29;9.50;;;2.70;;
4011;SDS011;2020;48.682;9.024;2022-10-28T10:18:01;14.17;;;2.53;;
4011;SDS011;2020;48.682;9.024;2022-10-28T10:20:46;2.50;;;2.40;;
4011;SDS011;2020;48.682;9.024;2022-10-28T10:23:21;2.73;;;2.50;;
4011;SDS011;2020;48.682;9.024;2022-10-28T10:25:53;2.77;;;2.20;;
4011;SDS011;2020;48.682;9.024;2022-10-28T10:28:21;4.93;;;4.03;;
4011;SDS011;2020;48.682;9.024;2022-10-28T10:30:53;3.60;;;2.30;;
4011;SDS011;2020;48.682;9.024;2022-10-28T10:35:54;4.00;;;2.23;;
4011;SDS011;2020;48.682;9.024;2022-10-28T10:38:22;6.10;;;2.70;;
4011;SDS011;2020;48.682;9.024;2022-10-28T10:40:49;7.40;;;2.33;;
4011;SDS011;2020;48.682;9.024;2022-10-28T10:43:34;4.93;;;2.10;;
4011;SDS011;2020;48.682;9.024;2022-10-28T10:46:13;3.07;;;2.50;;
4011;SDS011;2020;48.682;9.024;2022-10-28T10:48:40;4.63;;;2.60;;
4011;SDS011;2020;48.682;9.024;2022-10-28T10:51:22;4.27;;;2.20;;
4011;SDS011;2020;48.682;9.024;2022-10-28T10:53:51;2.70;;;1.80;;
4011;SDS011;2020;48.682;9.024;2022-10-28T10:56:24;5.60;;;1.80;;
4011;SDS011;2020;48.682;9.024;2022-10-28T10:58:51;3.13;;;1.57;;
4011;SDS011;2020;48.682;9.024;2022-10-28T11:01:21;7.30;;;1.93;;
4011;SDS011;2020;48.682;9.024;2022-10-28T11:03:51;3.90;;;2.20;;
4011;SDS011;2020;48.682;9.024;2022-10-28T11:06:19;5.20;;;3.10;;
4011;SDS011;2020;48.682;9.024;2022-10-28T11:08:47;3.53;;;1.80;;
4011;SDS011;2020;48.682;9.024;2022-10-28T11:11:22;10.93;;;2.40;;
4011;SDS011;2020;48.682;9.024;2022-10-28T11:16:56;6.20;;;2.10;;
4011;SDS011;2020;48.682;9.024;2022-10-28T11:19:29;4.90;;;2.23;;
4011;SDS011;2020;48.682;9.024;2022-10-28T11:22:15;2.47;;;2.27;;
4011;SDS011;2020;48.682;9.024;2022-10-28T11:36:36;3.20;;;2.17;;
4011;SDS011;2020;48.682;9.024;2022-10-28T11:44:44;5.03;;;2.37;;
4011;SDS011;2020;48.682;9.024;2022-10-28T11:50:00;5.13;;;2.30;;
4011;SDS011;2020;48.682;9.024;2022-10-28T12:12:22;3.80;;;2.30;;
4011;SDS011;2020;48.682;9.024;2022-10-28T12:17:35;4.50;;;2.60;;
4011;SDS011;2020;48.682;9.024;2022-10-28T12:20:17;7.10;;;2.73;;
4011;SDS011;2020;48.682;9.024;2022-10-28T12:22:49;4.83;;;2.40;;
4011;SDS011;2020;48.682;9.024;2022-10-28T12:25:19;6.60;;;1.70;;
4011;SDS011;2020;48.682;9.024;2022-10-28T12:27:48;4.60;;;2.17;;
4011;SDS011;2020;48.682;9.024;2022-10-28T12:30:26;4.43;;;2.23;;
4011;SDS011;2020;48.682;9.024;2022-10-28T12:32:58;4.00;;;2.73;;
4011;SDS011;2020;48.682;9.024;2022-10-28T12:35:32;3.93;;;2.30;;
4011;SDS011;2020;48.682;9.024;2022-10-28T12:40:42;3.47;;;1.90;;
4011;SDS011;2020;48.682;9.024;2022-10-28T12:43:30;2.33;;;1.97;;
4011;SDS011;2020;48.682;9.024;2022-10-28T12:46:00;6.00;;;2.37;;
4011;SDS011;2020;48.682;9.024;2022-10-28T12:48:41;3.90;;;2.87;;
4011;SDS011;2020;48.682;9.024;2022-10-28T12:56:41;10.83;;;2.80;;
4011;SDS011;2020;48.682;9.024;2022-10-28T12:59:27;2.50;;;1.97;;
4011;SDS011;2020;48.682;9.024;2022-10-28T13:01:56;6.90;;;2.60;;
4011;SDS011;2020;48.682;9.024;2022-10-28T13:04:25;4.50;;;2.33;;
4011;SDS011;2020;48.682;9.024;2022-10-28T13:15:04;8.20;;;3.17;;
4011;SDS011;2020;48.682;9.024;2022-10-28T13:18:04;7.20;;;2.30;;
4011;SDS011;2020;48.682;9.024;2022-10-28T13:24:04;7.80;;;3.27;;
4011;SDS011;2020;48.682;9.024;2022-10-28T13:26:35;3.27;;;2.50;;
4011;SDS011;2020;48.682;9.024;2022-10-28T13:29:05;3.70;;;2.87;;
4011;SDS011;2020;48.682;9.024;2022-10-28T13:31:42;7.50;;;3.00;;
4011;SDS011;2020;48.682;9.024;2022-10-28T13:34:10;4.33;;;2.57;;
4011;SDS011;2020;48.682;9.024;2022-10-28T13:36:39;5.57;;;2.03;;
4011;SDS011;2020;48.682;9.024;2022-10-28T13:39:51;4.40;;;2.43;;
4011;SDS011;2020;48.682;9.024;2022-10-28T13:42:52;9.60;;;2.60;;
4011;SDS011;2020;48.682;9.024;2022-10-28T13:52:31;6.70;;;3.33;;
4011;SDS011;2020;48.682;9.024;2022-10-28T13:54:57;20.90;;;3.13;;
4011;SDS011;2020;48.682;9.024;2022-10-28T13:57:36;3.43;;;2.63;;
4011;SDS011;2020;48.682;9.024;2022-10-28T14:02:41;3.67;;;2.20;;
4011;SDS011;2020;48.682;9.024;2022-10-28T14:05:12;6.93;;;2.33;;
4011;SDS011;2020;48.682;9.024;2022-10-28T14:08:40;4.17;;;2.40;;
4011;SDS011;2020;48.682;9.024;2022-10-28T14:13:40;9.73;;;3.17;;
4011;SDS011;2020;48.682;9.024;2022-10-28T14:16:15;9.50;;;2.63;;
4011;SDS011;2020;48.682;9.024;2022-10-28T14:18:49;3.23;;;2.40;;
4011;SDS011;2020;48.682;9.024;2022-10-28T14:21:18;4.70;;;2.77;;
4011;SDS011;2020;48.682;9.024;2022-10-28T14:26:12;7.00;;;2.80;;
4011;SDS011;2020;48.682;9.024;2022-10-28T14:41:48;5.20;;;2.53;;
4011;SDS011;2020;48.682;9.024;2022-10-28T14:52:27;4.10;;;2.43;;
4011;SDS011;2020;48.682;9.024;2022-10-28T14:54:56;4.20;;;2.37;;
4011;SDS011;2020;48.682;9.024;2022-10-28T14:57:28;11.77;;;2.90;;
4011;SDS011;2020;48.682;9.024;2022-10-28T14:59:55;6.47;;;2.20;;
4011;SDS011;2020;48.682;9.024;2022-10-28T15:02:28;4.27;;;2.50;;
4011;SDS011;2020;48.682;9.024;2022-10-28T15:07:36;5.10;;;2.63;;
4011;SDS011;2020;48.682;9.024;2022-10-28T15:12:57;3.50;;;2.63;;
4011;SDS011;2020;48.682;9.024;2022-10-28T15:15:25;7.90;;;2.53;;
4011;SDS011;2020;48.682;9.024;2022-10-28T15:17:52;6.90;;;2.70;;
4011;SDS011;2020;48.682;9.024;2022-10-28T15:20:19;4.10;;;2.73;;
4011;SDS011;2020;48.682;9.024;2022-10-28T15:23:12;12.13;;;3.70;;
4011;SDS011;2020;48.682;9.024;2022-10-28T15:25:40;7.60;;;2.73;;
4011;SDS011;2020;48.682;9.024;2022-10-28T15:28:07;3.17;;;2.50;;
4011;SDS011;2020;48.682;9.024;2022-10-28T15:30:35;2.87;;;2.67;;
4011;SDS011;2020;48.682;9.024;2022-10-28T15:33:16;4.60;;;2.70;;
4011;SDS011;2020;48.682;9.024;2022-10-28T15:35:44;6.00;;;4.53;;
4011;SDS011;2020;48.682;9.024;2022-10-28T15:38:32;10.80;;;2.87;;
4011;SDS011;2020;48.682;9.024;2022-10-28T15:40:58;8.53;;;2.63;;
4011;SDS011;2020;48.682;9.024;2022-10-28T15:43:27;6.27;;;3.40;;
4011;SDS011;2020;48.682;9.024;2022-10-28T15:46:15;5.00;;;2.63;;
4011;SDS011;2020;48.682;9.024;2022-10-28T15:48:40;5.57;;;3.20;;
4011;SDS011;2020;48.682;9.024;2022-10-28T15:51:15;5.00;;;3.20;;
4011;SDS011;2020;48.682;9.024;2022-10-28T15:53:43;6.17;;;3.47;;
4011;SDS011;2020;48.682;9.024;2022-10-28T15:58:38;6.93;;;2.90;;
4011;SDS011;2020;48.682;9.024;2022-10-28T16:01:07;6.73;;;3.50;;
4011;SDS011;2020;48.682;9.024;2022-10-28T16:03:51;6.73;;;2.97;;
4011;SDS011;2020;48.682;9.024;2022-10-28T16:06:20;5.23;;;3.73;;
4011;SDS011;2020;48.682;9.024;2022-10-28T16:11:29;6.93;;;2.97;;
4011;SDS011;2020;48.682;9.024;2022-10-28T16:13:55;7.40;;;3.60;;
4011;SDS011;2020;48.682;9.024;2022-10-28T16:16:31;9.17;;;4.00;;
4011;SDS011;2020;48.682;9.024;2022-10-28T16:19:09;5.40;;;3.20;;
4011;SDS011;2020;48.682;9.024;2022-10-28T16:21:48;9.43;;;4.00;;
4011;SDS011;2020;48.682;9.024;2022-10-28T16:24:13;5.53;;;3.43;;
4011;SDS011;2020;48.682;9.024;2022-10-28T16:26:38;6.03;;;4.10;;
4011;SDS011;2020;48.682;9.024;2022-10-28T16:29:04;7.57;;;3.30;;
4011;SDS011;2020;48.682;9.024;2022-10-28T16:31:29;7.73;;;3.10;;
4011;SDS011;2020;48.682;9.024;2022-10-28T16:33:56;3.00;;;2.83;;
4011;SDS011;2020;48.682;9.024;2022-10-28T16:36:22;7.70;;;5.43;;
4011;SDS011;2020;48.682;9.024;2022-10-28T16:38:47;7.10;;;5.67;;
4011;SDS011;2020;48.682;9.024;2022-10-28T16:41:16;9.40;;;5.27;;
4011;SDS011;2020;48.682;9.024;2022-10-28T16:43:43;16.20;;;4.90;;
4011;SDS011;2020;48.682;9.024;2022-10-28T16:46:10;4.77;;;3.80;;
4011;SDS011;2020;48.682;9.024;2022-10-28T16:48:36;7.33;;;4.23;;
4011;SDS011;2020;48.682;9.024;2022-10-28T16:51:02;7.90;;;4.60;;
4011;SDS011;2020;48.682;9.024;2022-10-28T16:53:48;14.57;;;7.43;;
4011;SDS011;2020;48.682;9.024;2022-10-28T16:56:15;15.40;;;10.50;;
4011;SDS011;2020;48.682;9.024;2022-10-28T16:58:41;11.37;;;4.80;;
4011;SDS011;2020;48.682;9.024;2022-10-28T17:01:07;11.50;;;5.23;;
4011;SDS011;2020;48.682;9.024;2022-10-28T17:03:33;8.30;;;5.00;;
4011;SDS011;2020;48.682;9.024;2022-10-28T17:05:59;5.10;;;3.90;;
4011;SDS011;2020;48.682;9.024;2022-10-28T17:08:24;8.00;;;4.20;;
4011;SDS011;2020;48.682;9.024;2022-10-28T17:10:49;7.83;;;4.20;;
4011;SDS011;2020;48.682;9.024;2022-10-28T17:13:14;6.10;;;4.70;;
4011;SDS011;2020;48.682;9.024;2022-10-28T17:15:40;10.33;;;6.13;;
4011;SDS011;2020;48.682;9.024;2022-10-28T17:18:07;13.63;;;5.93;;
4011;SDS011;2020;48.682;9.024;2022-10-28T17:20:34;7.00;;;4.53;;
4011;SDS011;2020;48.682;9.024;2022-10-28T17:22:59;6.10;;;5.30;;
4011;SDS011;2020;48.682;9.024;2022-10-28T17:25:24;6.90;;;5.30;;
4011;SDS011;2020;48.682;9.024;2022-10-28T17:27:51;10.30;;;5.27;;
4011;SDS011;2020;48.682;9.024;2022-10-28T17:30:17;4.47;;;4.07;;
4011;SDS011;2020;48.682;9.024;2022-10-28T17:32:43;7.50;;;5.90;;
4011;SDS011;2020;48.682;9.024;2022-10-28T17:35:09;8.07;;;4.23;;
4011;SDS011;2020;48.682;9.024;2022-10-28T17:37:34;4.93;;;4.50;;
4011;SDS011;2020;48.682;9.024;2022-10-28T17:39:59;17.53;;;11.13;;
4011;SDS011;2020;48.682;9.024;2022-10-28T17:42:26;14.83;;;8.00;;
4011;SDS011;2020;48.682;9.024;2022-10-28T17:44:51;11.13;;;5.00;;
4011;SDS011;2020;48.682;9.024;2022-10-28T17:47:17;6.40;;;4.60;;
4011;SDS011;2020;48.682;9.024;2022-10-28T17:49:42;10.50;;;5.40;;
4011;SDS011;2020;48.682;9.024;2022-10-28T17:52:07;11.50;;;5.17;;
4011;SDS011;2020;48.682;9.024;2022-10-28T17:54:33;5.10;;;4.60;;
4011;SDS011;2020;48.682;9.024;2022-10-28T17:56:58;7.00;;;5.07;;
4011;SDS011;2020;48.682;9.024;2022-10-28T17:59:23;10.27;;;4.80;;
4011;SDS011;2020;48.682;9.024;2022-10-28T18:01:48;6.57;;;4.30;;
4011;SDS011;2020;48.682;9.024;2022-10-28T18:04:14;4.90;;;4.60;;
4011;SDS011;2020;48.682;9.024;2022-10-28T18:06:39;9.90;;;5.03;;
4011;SDS011;2020;48.682;9.024;2022-10-28T18:09:08;10.53;;;6.30;;
4011;SDS011;2020;48.682;9.024;2022-10-28T18:11:34;15.47;;;6.47;;
4011;SDS011;2020;48.682;9.024;2022-10-28T18:14:02;14.83;;;6.63;;
4011;SDS011;2020;48.682;9.024;2022-10-28T18:16:28;6.80;;;4.80;;
4011;SDS011;2020;48.682;9.024;2022-10-28T18:18:53;9.60;;;6.37;;
4011;SDS011;2020;48.682;9.024;2022-10-28T18:21:19;13.90;;;6.40;;